Terminal Aerodrome Forecast
Issued by NWS

Home | Current Version | Previous Version | Text Only | Print | Product List | Glossary On
Versions: 1 2 3 4 5 6 7 8 9 10 11 12 13 14
000
FTUS45 KABQ 281739
TAFFMN
TAF
KFMN 281739Z 2818/2918 18012G22KT P6SM SCT080
     FM282100 21018G28KT P6SM VCSH OVC070
     FM290200 23009KT P6SM VCSH BKN060
     FM290700 06006KT P6SM OVC050
     FM291700 28008KT P6SM SCT015 BKN040=

USA.gov is the U.S. government's official web portal to all federal, state and local government web resources and services.